Lawton Fort Sill Regional Airport
KLAW : now visible

Airfield :











YOU CAN JOIN US ON...

 
LOGIN :

Register | Disclaimer

   EN    FR    IT 

 









Legend :    VFR   Marginal VFR   IFR   Intensive IFR   Very Intensive IFR
Visi :
Ceiling :
>= 8 km
>= 3000ft
5 to 8 km
1000 to 3000 ft
1500m to 5 km
500 to 1000 ft
800 to 1500m
200 to 500 ft
< 800m
< 200 ft
Symbols :   Thunderstorms  Fog  Heavy snow  Heavy precipitations  Wind > 20 kt






- Airport Elevation : 1110 ft


KLAW - Lawton Fort Sill Regional

CURRENT METAR :
  • 231059Z AUTO 01024G37KT 10SM TS FEW090 BKN110 08/04 A3004 RMK AO2 PK WND 01037/1059 LTG DSNT S TSB59 T00780044

EXPIRED METARs :
  • 231053Z AUTO 36025G35KT 10SM FEW046 SCT100 08/04 A3004 RMK AO2 PK WND 01040/1034 RAE32 TSE03 SLP167 P0002 T00780044
  • 231009Z AUTO 36023G34KT 10SM -RA FEW011 BKN075 OVC110 09/07 A2999 RMK AO2 PK WND 03035/0954 LTG DSNT ALQDS TSE03 P0002 T00890067
  • 230953Z AUTO 04023G29KT 6SM -TSRA BR FEW070 OVC085 09/07 A2996 RMK AO2 PK WND 04029/0952 LTG DSNT SE-W RAB0856 TSB48 PRESFR SLP139 P0006 T00940072
  • 230853Z AUTO 36018G22KT 10SM FEW018 SCT070 OVC100 12/08 A3003 RMK AO2 PK WND 36031/0811 LTG DSNT S-W TSB23E38 SLP160 T01220078 53069
  • 230841Z AUTO 34013G25KT 10SM SCT019 SCT070 BKN100 13/07 A3002 RMK AO2 PK WND 36031/0811 LTG DSNT S-NW TSB23E38 T01330072
  • 230829Z AUTO 35016G25KT 10SM TS FEW065 SCT100 SCT110 13/07 A3002 RMK AO2 PK WND 36031/0811 LTG DSNT ALQDS TSB23 PRESRR T01330067

TAF KLAW
Valid from the 23 at 06:00 until the 24 at 06:00 UTC


230520Z 2306/2406 18013G18KT P6SM VCSH BKN100 WS020/20040KT
FM230800 34019G27KT P6SM VCSH BKN050
FM231100 36023G34KT P6SM VCSH OVC027
FM231600 01022G31KT P6SM OVC040
FM232100 01015G22KT P6SM SCT050
FM240000 01010KT P6SM SKC
KZFW FIR / North America



MET'MAP, your aeronautical weather chart ! - Copyright ORBIFLY December 2007 - Disclaimer

ORBIFLY MET'MAP TEAM :

Programming & Development : Alexandra Zaïnal
Concept & original design : Baudouin d'Aumeries
Assistance for programming : Marc-Olivier Méhu
Technical & hardware support : Manuel Goepfert

Contact : metmap@orbifly.com




SOURCES & CREDITS :

   NOAA       Earth
Advisory